Time;durP1;ratioP1;P1;durP2;ratioP2;P2;SDS_P1;SDS_P2;PMS_P1;PMS_P2;Temp;Humidity;BMP_temperature;BMP_pressure;BME280_temperature;BME280_humidity;BME280_pressure;Samples;Min_cycle;Max_cycle;Signal;HPM_P1;HPM_P2
2023/06/25 00:01:21;;;;;;;3.05;2.10;;;;;;;23.99;73.12;101409.97;5028177;28;20607;-59
2023/06/25 00:03:46;;;;;;;3.70;2.33;;;;;;;24.06;73.16;101418.84;5034980;28;20752;-56
2023/06/25 00:06:12;;;;;;;2.55;1.70;;;;;;;24.02;73.27;101417.41;5029876;28;20507;-54
2023/06/25 00:08:37;;;;;;;4.97;1.95;;;;;;;24.00;73.42;101411.53;5030382;28;20108;-60
2023/06/25 00:11:03;;;;;;;3.30;1.45;;;;;;;23.96;73.66;101419.09;5030381;28;20415;-60
2023/06/25 00:13:28;;;;;;;3.10;2.00;;;;;;;23.90;73.90;101420.78;5032300;28;20671;-60
2023/06/25 00:16:14;;;;;;;3.00;2.13;;;;;;;23.86;74.32;101425.59;5034250;28;20037;-59
2023/06/25 00:18:40;;;;;;;2.38;1.58;;;;;;;23.81;74.28;101423.34;5032173;28;20056;-58
2023/06/25 00:21:06;;;;;;;4.25;1.95;;;;;;;23.85;74.32;101413.03;5032358;28;20037;-60
2023/06/25 00:23:31;;;;;;;3.50;2.10;;;;;;;23.77;74.47;101420.66;5038854;28;20037;-58
2023/06/25 00:25:56;;;;;;;4.65;2.22;;;;;;;23.71;74.90;101419.59;5031993;28;20064;-59
2023/06/25 00:28:22;;;;;;;4.07;2.00;;;;;;;23.73;74.76;101419.19;5034629;28;20053;-59
2023/06/25 00:30:47;;;;;;;3.63;2.25;;;;;;;23.64;75.20;101414.25;5033657;28;20150;-59
2023/06/25 00:33:13;;;;;;;3.83;2.15;;;;;;;23.69;75.02;101407.50;5020935;28;20029;-58
2023/06/25 00:35:43;;;;;;;3.97;1.92;;;;;;;23.56;75.22;101404.59;5045158;28;20056;-60
2023/06/25 00:38:10;;;;;;;4.50;2.55;;;;;;;23.56;75.63;101406.56;5046073;28;20037;-60
2023/06/25 00:40:35;;;;;;;3.88;2.05;;;;;;;23.55;75.43;101416.81;5022299;28;20040;-60
2023/06/25 00:43:03;;;;;;;3.05;1.92;;;;;;;23.54;75.93;101406.25;5038047;28;20045;-59
2023/06/25 00:45:29;;;;;;;2.65;1.85;;;;;;;23.53;75.73;101407.44;5035100;28;20033;-59
2023/06/25 00:47:55;;;;;;;4.85;2.67;;;;;;;23.40;76.30;101398.28;5013747;28;20036;-59
2023/06/25 00:50:21;;;;;;;4.18;2.40;;;;;;;23.40;76.50;101403.78;5033938;28;20046;-57
2023/06/25 00:52:51;;;;;;;4.20;2.25;;;;;;;23.37;76.44;101402.66;5022035;28;20119;-60
2023/06/25 00:55:17;;;;;;;4.55;2.53;;;;;;;23.36;76.72;101405.81;5034065;28;20124;-60
2023/06/25 00:57:43;;;;;;;3.88;2.28;;;;;;;23.34;76.60;101398.00;5027959;28;20044;-60
2023/06/25 01:00:28;;;;;;;4.45;2.33;;;;;;;23.35;76.70;101396.78;5029093;28;20030;-58
2023/06/25 01:03:31;;;;;;;3.22;1.83;;;;;;;23.35;76.79;101396.00;5028485;28;20411;-59
2023/06/25 01:06:02;;;;;;;4.32;2.22;;;;;;;23.29;77.13;101401.19;5039526;28;20075;-59
2023/06/25 01:08:30;;;;;;;3.55;2.17;;;;;;;23.25;77.16;101398.53;5045301;28;20365;-59
2023/06/25 01:10:56;;;;;;;3.92;2.53;;;;;;;23.19;77.62;101397.47;5042608;28;20090;-59
2023/06/25 01:13:22;;;;;;;5.38;2.35;;;;;;;23.20;77.71;101401.78;5042362;28;20035;-60
2023/06/25 01:15:48;;;;;;;3.75;1.90;;;;;;;23.16;77.91;101392.03;5033757;28;20484;-59
2023/06/25 01:18:14;;;;;;;4.85;2.50;;;;;;;23.07;78.37;101395.34;5027633;28;20433;-58
2023/06/25 01:20:40;;;;;;;3.50;2.05;;;;;;;23.03;78.53;101391.91;5028043;28;20120;-60
2023/06/25 01:23:07;;;;;;;3.63;2.30;;;;;;;23.06;78.70;101385.56;5036706;28;20064;-61
2023/06/25 01:25:36;;;;;;;3.38;2.33;;;;;;;23.01;78.74;101394.31;5029054;28;20021;-60
2023/06/25 01:28:02;;;;;;;5.22;2.28;;;;;;;23.01;78.86;101388.03;5027012;28;20060;-60
2023/06/25 01:30:31;;;;;;;5.28;2.38;;;;;;;22.96;79.22;101381.03;5028014;28;20033;-60
2023/06/25 01:32:57;;;;;;;3.60;2.15;;;;;;;22.95;79.16;101379.50;5028152;28;20033;-60
2023/06/25 01:35:24;;;;;;;5.45;3.00;;;;;;;22.93;79.50;101381.88;5029308;28;20041;-58
2023/06/25 01:37:49;;;;;;;4.97;2.22;;;;;;;22.88;79.56;101378.84;5033946;28;20043;-60
2023/06/25 01:40:16;;;;;;;6.32;2.40;;;;;;;22.92;79.49;101377.56;5041357;28;20045;-59
2023/06/25 01:42:42;;;;;;;4.55;2.60;;;;;;;22.86;79.86;101379.25;5035549;28;20026;-60
2023/06/25 01:45:09;;;;;;;4.97;2.50;;;;;;;22.95;79.20;101379.50;5037535;28;20072;-60
2023/06/25 01:47:34;;;;;;;5.18;3.10;;;;;;;22.92;79.56;101385.03;5028033;28;20033;-60
2023/06/25 01:50:00;;;;;;;4.68;2.60;;;;;;;22.83;79.90;101371.84;5030819;28;20083;-60
2023/06/25 01:52:25;;;;;;;3.92;2.30;;;;;;;22.79;79.93;101373.91;5029824;28;20034;-59
2023/06/25 01:54:52;;;;;;;4.18;2.30;;;;;;;22.79;79.99;101373.13;5027484;28;20037;-60
2023/06/25 01:57:17;;;;;;;5.38;2.47;;;;;;;22.80;79.89;101369.94;5029817;28;20033;-59
2023/06/25 01:59:43;;;;;;;4.22;2.55;;;;;;;22.74;80.16;101371.66;5030172;28;20030;-60
2023/06/25 02:02:08;;;;;;;4.05;2.10;;;;;;;22.74;79.83;101374.41;5012911;28;20029;-60
2023/06/25 02:04:34;;;;;;;7.45;2.42;;;;;;;22.61;80.86;101373.44;5027785;28;20080;-60
2023/06/25 02:07:00;;;;;;;5.38;2.30;;;;;;;22.54;81.00;101381.78;5029375;28;20057;-60
2023/06/25 02:09:25;;;;;;;3.72;2.28;;;;;;;22.54;80.86;101375.50;5036173;28;20037;-59
2023/06/25 02:11:51;;;;;;;3.42;2.40;;;;;;;22.53;81.01;101373.94;5034970;28;20021;-58
2023/06/25 02:14:16;;;;;;;3.90;2.10;;;;;;;22.47;81.15;101365.41;5028001;28;20593;-59
2023/06/25 02:16:42;;;;;;;4.10;2.03;;;;;;;22.50;81.14;101370.06;5027382;28;20033;-60
2023/06/25 02:19:08;;;;;;;3.63;2.00;;;;;;;22.47;81.00;101370.13;5029677;28;20049;-60
2023/06/25 02:21:33;;;;;;;4.15;2.03;;;;;;;22.45;81.08;101365.81;5031178;28;20026;-59
2023/06/25 02:23:58;;;;;;;3.72;2.15;;;;;;;22.45;80.88;101365.81;5031265;28;20523;-60
2023/06/25 02:26:24;;;;;;;4.05;2.13;;;;;;;22.42;81.15;101357.66;5034299;28;20056;-58
2023/06/25 02:28:49;;;;;;;3.58;2.38;;;;;;;22.36;81.51;101356.56;5032667;28;20025;-58
2023/06/25 02:31:15;;;;;;;4.55;2.30;;;;;;;22.25;81.82;101356.75;5034805;28;20069;-60
2023/06/25 02:33:41;;;;;;;3.53;2.22;;;;;;;22.23;82.30;101363.84;5037770;28;20045;-59
2023/06/25 02:36:06;;;;;;;6.57;2.50;;;;;;;22.13;82.65;101351.84;5042382;28;20033;-60
2023/06/25 02:38:32;;;;;;;4.47;2.60;;;;;;;22.10;82.70;101355.44;5038425;28;20040;-60
2023/06/25 02:40:57;;;;;;;4.03;2.20;;;;;;;22.16;82.21;101351.00;5044586;28;20029;-60
2023/06/25 02:43:24;;;;;;;3.03;1.98;;;;;;;22.10;82.38;101347.22;5052029;28;20025;-60
2023/06/25 02:45:51;;;;;;;3.08;2.22;;;;;;;22.17;82.03;101338.84;5045403;28;20095;-60
2023/06/25 02:48:17;;;;;;;2.58;1.88;;;;;;;22.08;82.17;101337.84;5050276;28;20033;-57
2023/06/25 02:50:43;;;;;;;3.25;1.98;;;;;;;22.13;82.15;101346.38;5040727;28;20033;-59
2023/06/25 02:53:08;;;;;;;3.90;2.00;;;;;;;22.05;82.40;101341.38;5031197;28;20037;-57
2023/06/25 02:55:34;;;;;;;9.18;2.10;;;;;;;22.02;82.45;101344.97;5032758;28;20029;-60
2023/06/25 02:57:59;;;;;;;4.32;2.10;;;;;;;22.05;82.45;101344.13;5030187;28;20480;-59
2023/06/25 03:00:25;;;;;;;3.17;2.13;;;;;;;22.09;82.25;101351.13;5029640;28;20045;-60
2023/06/25 03:02:51;;;;;;;4.57;2.33;;;;;;;22.00;82.79;101341.88;5033513;28;20396;-56
2023/06/25 03:05:16;;;;;;;4.28;2.13;;;;;;;21.97;82.43;101340.72;5034683;28;20043;-60
2023/06/25 03:07:50;;;;;;;4.65;1.95;;;;;;;22.01;82.32;101343.44;5032235;28;20029;-56
2023/06/25 03:10:15;;;;;;;3.13;1.95;;;;;;;22.01;82.58;101337.94;5033309;28;20037;-60
2023/06/25 03:12:41;;;;;;;3.35;2.28;;;;;;;21.94;82.87;101338.03;5031099;28;20033;-59
2023/06/25 03:15:07;;;;;;;4.07;2.35;;;;;;;21.93;82.61;101342.00;5032285;28;20043;-60
2023/06/25 03:17:33;;;;;;;3.67;2.10;;;;;;;21.83;83.39;101343.69;5031212;28;20026;-61
2023/06/25 03:20:00;;;;;;;2.33;2.03;;;;;;;21.72;83.97;101342.28;5029364;28;20186;-60
2023/06/25 03:22:25;;;;;;;3.47;1.90;;;;;;;21.73;83.99;101346.56;5042102;28;20120;-60
2023/06/25 03:24:51;;;;;;;2.60;1.90;;;;;;;21.80;83.65;101339.03;5029393;28;20036;-60
2023/06/25 03:27:17;;;;;;;3.72;2.08;;;;;;;21.76;83.96;101343.75;5030130;28;20088;-58
2023/06/25 03:29:44;;;;;;;3.92;2.17;;;;;;;21.74;83.88;101339.91;5037816;28;20535;-60
2023/06/25 03:32:09;;;;;;;3.17;2.08;;;;;;;21.72;84.05;101342.28;5036763;28;20167;-59
2023/06/25 03:34:35;;;;;;;3.72;2.10;;;;;;;21.73;84.46;101343.81;5030138;28;20040;-60
2023/06/25 03:37:01;;;;;;;6.00;2.25;;;;;;;21.74;84.20;101340.66;5030333;28;20049;-58
2023/06/25 03:39:27;;;;;;;4.00;2.42;;;;;;;21.84;83.75;101336.22;5045304;28;20029;-60
2023/06/25 03:41:52;;;;;;;2.90;1.77;;;;;;;21.82;84.02;101341.34;5050288;28;20043;-60
2023/06/25 03:44:18;;;;;;;2.83;1.80;;;;;;;21.86;84.03;101339.34;5049227;28;20036;-60
2023/06/25 03:46:43;;;;;;;2.75;2.05;;;;;;;21.85;84.15;101332.31;5050328;28;20025;-60
2023/06/25 03:49:10;;;;;;;3.70;1.90;;;;;;;21.83;84.15;101340.19;5045010;28;20264;-60
2023/06/25 03:51:36;;;;;;;3.10;2.03;;;;;;;21.79;84.54;101331.19;5036526;28;20064;-60
2023/06/25 03:54:03;;;;;;;3.30;2.00;;;;;;;21.81;84.90;101331.59;5031561;28;20156;-60
2023/06/25 03:56:29;;;;;;;5.80;2.67;;;;;;;21.85;84.79;101332.31;5029444;28;20120;-60
2023/06/25 03:58:54;;;;;;;3.03;2.10;;;;;;;21.82;84.95;101335.88;5036508;28;20047;-57
2023/06/25 04:01:19;;;;;;;3.25;2.30;;;;;;;21.74;85.12;101332.41;5032207;28;20685;-58
2023/06/25 04:03:45;;;;;;;6.28;2.45;;;;;;;21.84;85.12;101328.78;5028700;28;20416;-60
2023/06/25 04:06:11;;;;;;;4.05;2.25;;;;;;;21.89;85.10;101320.06;5034914;28;20029;-59
2023/06/25 04:08:40;;;;;;;14.43;2.08;;;;;;;21.92;85.17;101329.44;5030780;28;20061;-60
2023/06/25 04:11:06;;;;;;;4.70;2.28;;;;;;;21.86;86.08;101336.59;5028377;28;20504;-61
2023/06/25 04:13:32;;;;;;;4.60;2.40;;;;;;;21.84;85.48;101328.00;5032038;28;20036;-59
2023/06/25 04:15:57;;;;;;;4.90;2.55;;;;;;;21.98;85.06;101341.50;5029420;28;20025;-60
2023/06/25 04:18:23;;;;;;;3.35;2.35;;;;;;;21.97;85.02;101332.50;5029228;28;20025;-59
2023/06/25 04:20:48;;;;;;;6.70;2.08;;;;;;;21.95;85.78;101334.13;5032172;28;20559;-59
2023/06/25 04:23:14;;;;;;;4.57;2.25;;;;;;;22.01;86.04;101327.72;5030086;28;20143;-59
2023/06/25 04:25:43;;;;;;;3.88;2.22;;;;;;;21.98;86.21;101333.28;5026539;28;20022;-59
2023/06/25 04:28:15;;;;;;;3.83;2.30;;;;;;;21.97;86.38;101329.75;5028748;28;20452;-59
2023/06/25 04:30:42;;;;;;;4.70;2.25;;;;;;;21.96;86.78;101332.91;5029513;28;20064;-58
2023/06/25 04:33:08;;;;;;;3.38;2.25;;;;;;;21.98;87.29;101339.53;5029903;28;20647;-59
2023/06/25 04:35:33;;;;;;;4.57;2.63;;;;;;;22.18;86.75;101328.66;5029485;28;20029;-60
2023/06/25 04:37:59;;;;;;;6.13;2.38;;;;;;;22.19;86.80;101339.22;5034875;28;20029;-59
2023/06/25 04:40:26;;;;;;;4.13;2.58;;;;;;;22.25;87.12;101336.75;5044324;28;20036;-60
2023/06/25 04:42:51;;;;;;;4.63;2.13;;;;;;;22.26;87.37;101327.34;5039668;28;20039;-59
2023/06/25 04:45:18;;;;;;;3.72;2.45;;;;;;;22.34;87.29;101334.25;5031356;28;20083;-57
2023/06/25 04:47:44;;;;;;;3.83;2.30;;;;;;;22.43;87.00;101332.50;5028110;28;20069;-60
2023/06/25 04:50:12;;;;;;;3.35;2.63;;;;;;;22.41;86.51;101323.16;5013626;28;20025;-60
2023/06/25 04:52:38;;;;;;;4.35;2.67;;;;;;;22.45;86.37;101321.88;5029342;28;20107;-57
2023/06/25 04:55:04;;;;;;;5.30;2.35;;;;;;;22.49;85.84;101323.81;5028669;28;20550;-58
2023/06/25 04:57:30;;;;;;;5.07;2.90;;;;;;;22.56;85.14;101323.66;5027766;28;20822;-60
2023/06/25 04:59:56;;;;;;;5.60;2.55;;;;;;;22.71;85.02;101339.50;5028304;28;20396;-60
2023/06/25 05:02:21;;;;;;;4.38;2.58;;;;;;;22.72;84.97;101329.31;5031644;28;20037;-59
2023/06/25 05:04:47;;;;;;;4.72;2.50;;;;;;;22.82;84.71;101337.31;5030045;28;20036;-60
2023/06/25 05:07:12;;;;;;;6.50;3.42;;;;;;;22.94;84.10;101338.66;5032005;28;20095;-59
2023/06/25 05:09:38;;;;;;;5.78;2.97;;;;;;;22.90;83.43;101341.50;5030770;28;20105;-59
2023/06/25 05:12:04;;;;;;;5.53;2.78;;;;;;;22.86;82.65;101338.03;5031286;28;20037;-60
2023/06/25 05:14:30;;;;;;;4.15;2.45;;;;;;;22.96;82.94;101334.31;5029560;28;20040;-59
2023/06/25 05:16:55;;;;;;;9.63;3.45;;;;;;;23.04;83.12;101338.47;5029209;28;20108;-60
2023/06/25 05:19:21;;;;;;;5.28;2.50;;;;;;;23.16;83.02;101335.09;5029184;28;20041;-57
2023/06/25 05:21:46;;;;;;;5.25;3.08;;;;;;;23.44;82.60;101332.97;5029538;28;20095;-59
2023/06/25 05:24:11;;;;;;;5.85;2.92;;;;;;;23.76;80.80;101344.03;5028471;28;20052;-60
2023/06/25 05:26:37;;;;;;;4.15;2.72;;;;;;;24.18;78.50;101330.06;5038218;28;20029;-60
2023/06/25 05:29:06;;;;;;;4.45;2.50;;;;;;;24.46;75.64;101336.84;5037378;28;20041;-60
2023/06/25 05:31:31;;;;;;;5.25;2.15;;;;;;;24.79;73.56;101332.84;5029318;28;20164;-59
2023/06/25 05:33:57;;;;;;;3.92;2.03;;;;;;;25.10;73.57;101337.91;5032624;28;20127;-60
2023/06/25 05:36:23;;;;;;;3.47;2.13;;;;;;;25.38;73.33;101337.06;5030592;28;20033;-60
2023/06/25 05:38:48;;;;;;;3.60;2.22;;;;;;;25.59;71.82;101331.72;5039486;28;20044;-59
2023/06/25 05:41:14;;;;;;;14.65;2.60;;;;;;;25.90;71.34;101342.97;5046877;28;20033;-60
2023/06/25 05:43:39;;;;;;;4.88;2.38;;;;;;;26.15;70.15;101345.00;5041318;28;20037;-60
2023/06/25 05:46:05;;;;;;;4.93;2.03;;;;;;;26.25;69.32;101346.63;5035421;28;20025;-60
2023/06/25 05:48:30;;;;;;;2.50;1.63;;;;;;;26.12;68.54;101349.41;5028623;28;20396;-60
2023/06/25 05:50:56;;;;;;;2.88;1.80;;;;;;;26.02;68.30;101331.16;5026847;28;20045;-58
2023/06/25 05:53:23;;;;;;;3.25;2.05;;;;;;;25.97;68.12;101337.25;5029268;28;20036;-60
2023/06/25 05:55:48;;;;;;;2.83;1.80;;;;;;;25.87;68.66;101332.81;5030602;28;20040;-59
2023/06/25 05:58:14;;;;;;;3.63;1.77;;;;;;;25.83;69.42;101332.94;5028221;28;20048;-58
2023/06/25 06:00:39;;;;;;;2.70;1.60;;;;;;;25.69;69.55;101327.84;5028653;28;20037;-59
2023/06/25 06:03:05;;;;;;;3.05;2.00;;;;;;;25.69;69.62;101330.63;5029055;28;20028;-60
2023/06/25 06:05:30;;;;;;;1.95;1.40;;;;;;;25.83;69.90;101323.88;5039854;28;20116;-58
2023/06/25 06:07:56;;;;;;;3.50;2.17;;;;;;;25.91;69.39;101326.00;5027701;28;20489;-60
2023/06/25 06:10:21;;;;;;;2.45;1.55;;;;;;;26.14;69.53;101333.16;5036208;28;20033;-58
2023/06/25 06:12:47;;;;;;;3.10;1.63;;;;;;;26.22;68.06;101331.72;5030067;28;20032;-60
2023/06/25 06:15:12;;;;;;;3.50;1.70;;;;;;;26.30;66.87;101329.47;5027350;28;20049;-59
2023/06/25 06:17:38;;;;;;;3.00;1.77;;;;;;;26.44;66.05;101329.00;5023864;28;20044;-59
2023/06/25 06:20:04;;;;;;;2.50;1.63;;;;;;;26.48;65.27;101333.16;5035526;28;20057;-60
2023/06/25 06:22:29;;;;;;;2.50;1.60;;;;;;;26.53;64.88;101329.84;5037158;28;20025;-59
2023/06/25 06:24:55;;;;;;;4.40;2.03;;;;;;;26.59;65.24;101339.13;5028393;28;20152;-58
2023/06/25 06:27:20;;;;;;;2.15;1.65;;;;;;;26.81;65.28;101338.41;5030351;28;20033;-60
2023/06/25 06:29:46;;;;;;;2.75;1.55;;;;;;;26.91;63.89;101329.72;5027674;28;20344;-60
2023/06/25 06:32:11;;;;;;;2.65;1.85;;;;;;;27.01;64.60;101330.53;5040082;28;20427;-60
2023/06/25 06:34:37;;;;;;;1.85;1.35;;;;;;;27.16;63.32;101326.06;5033264;28;20039;-60
2023/06/25 06:37:03;;;;;;;4.15;1.73;;;;;;;27.39;62.48;101331.88;5041580;28;20040;-61
2023/06/25 06:39:28;;;;;;;3.30;2.00;;;;;;;27.40;61.74;101325.13;5048198;28;20081;-60
2023/06/25 06:41:54;;;;;;;2.30;1.45;;;;;;;27.49;62.31;101330.69;5041621;28;20116;-59
2023/06/25 06:44:46;;;;;;;4.35;1.50;;;;;;;27.51;60.43;101319.94;5044934;28;20025;-60
2023/06/25 06:47:11;;;;;;;2.08;1.42;;;;;;;27.49;57.01;101316.09;5046094;28;20052;-60
2023/06/25 06:49:37;;;;;;;1.92;1.13;;;;;;;27.57;58.93;101325.66;5045233;28;20068;-60
2023/06/25 06:52:02;;;;;;;3.63;1.65;;;;;;;27.60;59.69;101319.97;5046449;28;20057;-60
2023/06/25 06:54:28;;;;;;;2.65;1.67;;;;;;;27.69;59.61;101310.94;5037421;28;20068;-52
2023/06/25 06:56:53;;;;;;;2.53;1.35;;;;;;;27.71;57.86;101319.56;5031322;28;20400;-59
2023/06/25 06:59:19;;;;;;;3.83;1.20;;;;;;;27.86;55.62;101312.22;5038220;28;20115;-59
2023/06/25 07:01:44;;;;;;;1.50;1.17;;;;;;;27.78;56.71;101313.00;5031657;28;20044;-59
2023/06/25 07:04:10;;;;;;;3.05;1.27;;;;;;;27.91;58.58;101308.09;5039004;28;20531;-60
2023/06/25 07:06:35;;;;;;;3.25;1.58;;;;;;;28.10;59.29;101310.47;5033455;28;20024;-60
2023/06/25 07:09:01;;;;;;;2.70;1.13;;;;;;;28.30;59.45;101310.81;5027925;28;20128;-61
2023/06/25 07:11:26;;;;;;;2.42;1.42;;;;;;;28.48;58.88;101307.28;5041891;28;20094;-59
2023/06/25 07:13:52;;;;;;;2.42;1.35;;;;;;;28.55;56.92;101309.00;5039673;28;20072;-60
2023/06/25 07:16:20;;;;;;;2.17;1.50;;;;;;;28.47;54.92;101306.50;5037746;28;20090;-60
2023/06/25 07:18:46;;;;;;;2.10;0.93;;;;;;;28.44;58.38;101299.13;5012943;28;20049;-60
2023/06/25 07:21:11;;;;;;;5.05;1.60;;;;;;;28.58;58.96;101302.53;5032811;28;20045;-60
2023/06/25 07:23:37;;;;;;;2.28;1.50;;;;;;;28.71;57.94;101308.66;5036828;28;20050;-60
2023/06/25 07:26:03;;;;;;;3.40;1.25;;;;;;;28.88;54.78;101304.38;5044386;28;20139;-59
2023/06/25 07:28:29;;;;;;;2.38;1.17;;;;;;;29.07;54.92;101298.31;5031558;28;20034;-60
2023/06/25 07:30:54;;;;;;;2.95;1.25;;;;;;;29.05;56.15;101297.22;5037324;28;20079;-60
2023/06/25 07:33:19;;;;;;;1.50;1.02;;;;;;;29.26;54.73;101301.81;5036406;28;20033;-60
2023/06/25 07:35:45;;;;;;;1.88;1.13;;;;;;;29.27;53.00;101295.78;5037744;28;20033;-58
2023/06/25 07:38:10;;;;;;;2.78;1.40;;;;;;;29.07;52.51;101294.75;5039261;28;20117;-60
2023/06/25 07:40:36;;;;;;;3.28;1.25;;;;;;;29.13;53.50;101290.16;5032006;28;20042;-60
2023/06/25 07:43:02;;;;;;;2.40;1.13;;;;;;;29.37;53.64;101293.75;5036677;28;20036;-60
2023/06/25 07:45:28;;;;;;;1.20;0.93;;;;;;;29.48;54.83;101290.50;5029369;28;20025;-59
2023/06/25 07:47:53;;;;;;;4.50;1.20;;;;;;;29.33;51.59;101293.94;5031742;28;20108;-60
2023/06/25 07:50:19;;;;;;;1.45;0.90;;;;;;;29.36;51.79;101289.47;5031043;28;20057;-60
2023/06/25 07:52:44;;;;;;;1.33;1.10;;;;;;;29.58;53.13;101298.28;5038808;28;20064;-58
2023/06/25 07:55:10;;;;;;;1.50;1.02;;;;;;;29.58;52.51;101292.75;5033169;28;20052;-59
2023/06/25 07:57:35;;;;;;;2.88;1.40;;;;;;;29.76;52.29;101294.69;5027855;28;20396;-60
2023/06/25 08:00:00;;;;;;;3.20;1.02;;;;;;;29.94;49.97;101292.59;5033313;28;20408;-60
2023/06/25 08:02:26;;;;;;;2.10;1.23;;;;;;;29.93;50.17;101284.72;5030402;28;20041;-60
2023/06/25 08:04:56;;;;;;;1.88;1.05;;;;;;;30.09;50.90;101290.63;5031897;28;20530;-58
2023/06/25 08:07:21;;;;;;;3.67;0.95;;;;;;;30.36;50.33;101294.47;5032283;28;20032;-59
2023/06/25 08:09:48;;;;;;;2.65;1.30;;;;;;;30.50;47.46;101299.31;5030117;28;20033;-60
2023/06/25 08:12:16;;;;;;;0.98;0.77;;;;;;;30.25;47.47;101295.00;5034176;28;20033;-60
2023/06/25 08:14:43;;;;;;;4.90;1.10;;;;;;;30.46;49.24;101293.16;5031660;28;20104;-60
2023/06/25 08:17:08;;;;;;;1.70;0.98;;;;;;;30.52;50.61;101294.03;5030066;28;20147;-60
2023/06/25 08:19:34;;;;;;;3.45;1.38;;;;;;;30.59;47.80;101288.09;5030944;28;20910;-61
2023/06/25 08:21:59;;;;;;;1.73;1.00;;;;;;;30.63;49.94;101288.69;5032172;28;20034;-61
2023/06/25 08:24:25;;;;;;;1.30;0.95;;;;;;;30.89;48.28;101281.34;5030281;28;20377;-61
2023/06/25 08:26:50;;;;;;;1.40;1.00;;;;;;;31.09;47.88;101278.66;5041684;28;20045;-60
2023/06/25 08:29:15;;;;;;;2.05;1.42;;;;;;;31.10;47.77;101272.63;5035494;28;20037;-59
2023/06/25 08:31:41;;;;;;;2.47;1.20;;;;;;;31.42;47.42;101275.66;5036385;28;20163;-59
2023/06/25 08:34:07;;;;;;;1.23;1.00;;;;;;;31.48;47.35;101279.28;5039519;28;20055;-59
2023/06/25 08:36:32;;;;;;;1.58;1.17;;;;;;;31.42;48.73;101278.44;5041943;28;20029;-60
2023/06/25 08:38:58;;;;;;;2.17;1.15;;;;;;;31.55;47.62;101288.00;5049197;28;20116;-61
2023/06/25 08:41:23;;;;;;;2.95;1.60;;;;;;;31.19;46.54;101276.53;5039776;28;20033;-61
2023/06/25 08:43:49;;;;;;;1.27;1.10;;;;;;;31.08;47.31;101275.13;5039879;28;20065;-59
2023/06/25 08:46:14;;;;;;;1.55;1.10;;;;;;;31.08;49.41;101277.13;5037965;28;20083;-61
2023/06/25 08:48:41;;;;;;;1.95;1.42;;;;;;;31.15;49.14;101273.94;5041451;28;20033;-61
2023/06/25 08:51:15;;;;;;;3.47;1.60;;;;;;;31.69;48.77;101270.47;5033624;28;20068;-59
2023/06/25 08:53:41;;;;;;;2.38;1.40;;;;;;;31.96;47.31;101281.28;5037523;28;20389;-58
2023/06/25 08:56:08;;;;;;;2.33;1.48;;;;;;;32.23;47.86;101271.72;5036885;28;20135;-61
2023/06/25 08:58:35;;;;;;;2.40;1.38;;;;;;;32.30;46.22;101267.72;5038703;28;20031;-58
2023/06/25 09:01:00;;;;;;;3.08;1.60;;;;;;;32.31;46.33;101274.88;5032354;28;20036;-61
2023/06/25 09:03:27;;;;;;;1.58;1.30;;;;;;;32.44;46.50;101270.44;5032556;28;20443;-61
2023/06/25 09:05:54;;;;;;;3.50;1.35;;;;;;;32.60;46.54;101274.66;5040532;28;20036;-59
2023/06/25 09:08:22;;;;;;;2.55;1.50;;;;;;;32.83;45.77;101270.84;5042801;23;20060;-55
2023/06/25 09:10:56;;;;;;;2.75;1.67;;;;;;;32.77;45.08;101261.66;5014185;28;20053;-56
2023/06/25 09:13:21;;;;;;;1.75;1.33;;;;;;;33.07;44.58;101262.97;5028800;28;20025;-56
2023/06/25 09:15:47;;;;;;;2.50;1.25;;;;;;;33.15;44.61;101263.28;5027179;28;20490;-56
2023/06/25 09:18:12;;;;;;;2.63;1.52;;;;;;;33.28;44.99;101269.97;5022212;28;20064;-57
2023/06/25 09:20:45;;;;;;;3.13;1.40;;;;;;;33.29;44.74;101262.38;5022474;28;20033;-57
2023/06/25 09:23:10;;;;;;;2.53;1.42;;;;;;;33.40;45.33;101254.84;5020654;28;20029;-57
2023/06/25 09:25:35;;;;;;;1.60;1.17;;;;;;;33.30;45.52;101253.47;5022279;28;20044;-56
2023/06/25 09:28:03;;;;;;;1.75;1.05;;;;;;;33.25;45.99;101259.81;5019151;28;20034;-57
2023/06/25 09:30:28;;;;;;;1.83;1.50;;;;;;;33.38;42.56;101254.56;5026706;28;20036;-58
2023/06/25 09:32:55;;;;;;;2.10;1.30;;;;;;;33.50;44.11;101249.84;5021411;28;20025;-57
2023/06/25 09:35:22;;;;;;;2.78;1.40;;;;;;;33.58;44.60;101259.28;5024249;28;20022;-57
2023/06/25 09:37:52;;;;;;;2.88;1.10;;;;;;;33.54;45.46;101255.97;5011877;28;20028;-55
2023/06/25 09:40:18;;;;;;;2.53;1.27;;;;;;;33.80;43.89;101247.47;5017485;28;20094;-57
2023/06/25 09:42:47;;;;;;;2.13;1.42;;;;;;;33.87;44.19;101244.94;5013021;28;20120;-55
2023/06/25 09:45:16;;;;;;;2.42;1.30;;;;;;;33.75;42.67;101248.19;5009641;28;20395;-55
2023/06/25 09:47:43;;;;;;;2.03;1.25;;;;;;;33.66;42.02;101247.13;5021010;28;21442;-57
2023/06/25 09:50:19;;;;;;;1.33;1.10;;;;;;;33.63;42.95;101238.97;5024304;28;20032;-57
2023/06/25 09:52:55;;;;;;;3.00;1.45;;;;;;;33.79;44.23;101246.69;5017347;28;20118;-57
2023/06/25 09:55:21;;;;;;;2.60;1.35;;;;;;;33.89;42.49;101247.25;5036561;28;20825;-54
2023/06/25 09:57:47;;;;;;;2.33;1.10;;;;;;;34.14;41.73;101246.34;5019692;28;20016;-57
2023/06/25 10:00:34;;;;;;;1.52;1.15;;;;;;;33.87;41.75;101244.94;5028538;28;20604;-55
2023/06/25 10:03:01;;;;;;;2.30;1.20;;;;;;;33.43;42.88;101244.69;4983862;28;20497;-56
2023/06/25 10:05:27;;;;;;;3.72;1.15;;;;;;;33.40;43.00;101240.09;4986067;28;20082;-55
2023/06/25 10:07:52;;;;;;;1.63;1.23;;;;;;;33.53;42.89;101235.63;4984793;28;20075;-55
2023/06/25 10:10:27;;;;;;;1.42;1.10;;;;;;;33.79;41.92;101232.72;4979890;28;20082;-57
2023/06/25 10:12:53;;;;;;;1.75;1.27;;;;;;;34.05;41.85;101238.19;4982617;28;20050;-56
2023/06/25 10:15:35;;;;;;;1.60;1.20;;;;;;;34.18;42.76;101241.28;4983757;28;20039;-57
2023/06/25 10:18:05;;;;;;;3.65;1.25;;;;;;;34.33;42.00;101230.63;4978692;28;20030;-57
2023/06/25 10:20:32;;;;;;;1.73;1.33;;;;;;;34.34;40.26;101226.56;4986390;28;20050;-57
2023/06/25 10:23:06;;;;;;;2.03;1.20;;;;;;;34.45;43.17;101220.97;4985616;28;20038;-58
2023/06/25 10:25:32;;;;;;;3.63;1.48;;;;;;;34.42;42.31;101222.75;4986020;28;20030;-54
2023/06/25 10:28:08;;;;;;;1.40;1.30;;;;;;;34.40;42.58;101218.91;4985307;28;20031;-57
2023/06/25 10:30:38;;;;;;;2.13;1.50;;;;;;;34.19;41.81;101214.81;4968342;28;20046;-57
2023/06/25 10:33:05;;;;;;;1.67;1.30;;;;;;;33.98;42.10;101219.06;4983485;28;20046;-57
2023/06/25 10:35:40;;;;;;;1.98;1.33;;;;;;;34.02;42.93;101206.38;4982693;28;20480;-54
2023/06/25 10:38:06;;;;;;;1.67;1.15;;;;;;;34.17;41.64;101200.56;4983529;28;20436;-54
2023/06/25 10:40:34;;;;;;;1.40;1.02;;;;;;;34.07;42.01;101207.69;5013989;28;20038;-56
2023/06/25 10:43:00;;;;;;;2.42;1.60;;;;;;;33.60;40.25;101203.66;5024626;28;20041;-52
2023/06/25 10:45:25;;;;;;;1.55;1.02;;;;;;;33.54;40.76;101200.06;5023598;28;20037;-53
2023/06/25 10:48:05;;;;;;;1.83;1.27;;;;;;;33.56;41.50;101194.72;5027589;28;20070;-56
2023/06/25 10:50:54;;;;;;;1.95;1.38;;;;;;;33.39;40.71;101191.06;5031499;28;20133;-53
2023/06/25 10:53:22;;;;;;;2.72;1.60;;;;;;;32.92;41.04;101184.13;4987574;28;20050;-55
2023/06/25 10:55:50;;;;;;;2.03;1.15;;;;;;;33.30;41.93;101186.44;4986890;28;20046;-52
2023/06/25 10:58:17;;;;;;;3.67;1.90;;;;;;;33.48;43.05;101182.50;4981825;28;20050;-57
2023/06/25 11:00:43;;;;;;;1.83;1.20;;;;;;;33.60;40.49;101187.63;4979677;28;20108;-56
2023/06/25 11:03:09;;;;;;;2.22;1.10;;;;;;;33.21;40.87;101183.84;4987511;28;20038;-56
2023/06/25 11:05:39;;;;;;;1.98;1.25;;;;;;;33.11;42.18;101184.53;4989350;28;20061;-57
2023/06/25 11:08:07;;;;;;;1.73;1.30;;;;;;;32.99;44.21;101182.91;4983763;28;20076;-55
2023/06/25 11:10:33;;;;;;;1.40;1.17;;;;;;;33.07;44.70;101186.78;4986838;28;20042;-54
2023/06/25 11:13:02;;;;;;;1.25;1.10;;;;;;;33.04;45.88;101185.75;4986701;28;20042;-57
2023/06/25 11:15:32;;;;;;;4.88;1.33;;;;;;;32.93;44.21;101182.84;4967443;28;20448;-56
2023/06/25 11:17:58;;;;;;;1.65;1.20;;;;;;;32.88;45.05;101178.00;4982709;28;20101;-57
2023/06/25 11:20:44;;;;;;;3.70;1.15;;;;;;;32.77;46.28;101170.28;4987886;28;20057;-55
2023/06/25 11:23:13;;;;;;;2.53;1.48;;;;;;;32.74;47.08;101167.72;4901073;29;20142;-57